Terminal Aerodrome Forecast
Issued by NWS Binghamton, NY

Home | Current Version | Previous Version | Text Only | Print | Product List | Glossary On
Versions: 1 2 3 4 5 6 7 8 9 10 11 12 13 14 15 16 17 18 19 20 21 22
000
FTUS41 KBGM 242342
TAFAVP
TAF
KAVP 242342Z 2500/2524 07005KT P6SM -SHRA SCT012 OVC060
     FM250700 13010G28KT 2SM RA BR OVC012 WS020/16050KT
     FM251700 14010G22KT 5SM -SHRA BR OVC012 WS020/20035KT
     FM252000 21006KT P6SM SCT030 BKN050 OVC090=

USA.gov is the U.S. government's official web portal to all federal, state and local government web resources and services.